Time;durP1;ratioP1;P1;durP2;ratioP2;P2;SDS_P1;SDS_P2;PMS_P1;PMS_P2;Temp;Humidity;BMP_temperature;BMP_pressure;BME280_temperature;BME280_humidity;BME280_pressure;Samples;Min_cycle;Max_cycle;Signal;HPM_P1;HPM_P2
2021/01/12 00:00:24;;;;;;;5.73;4.17;;;4.90;1.00;;;;;;5109161;28;20188;-57
2021/01/12 00:02:51;;;;;;;6.23;4.33;;;4.90;1.00;;;;;;5109994;28;20903;-57
2021/01/12 00:05:18;;;;;;;4.07;3.53;;;4.90;1.00;;;;;;5110327;28;20486;-57
2021/01/12 00:07:43;;;;;;;4.30;3.73;;;4.90;1.00;;;;;;5106883;28;20450;-58
2021/01/12 00:10:09;;;;;;;6.00;3.83;;;4.90;1.00;;;;;;5110370;28;20433;-57
2021/01/12 00:12:35;;;;;;;7.20;4.87;;;5.00;1.00;;;;;;5109558;28;20200;-57
2021/01/12 00:15:03;;;;;;;5.63;3.27;;;5.00;1.00;;;;;;5108074;28;20909;-57
2021/01/12 00:17:28;;;;;;;5.80;4.27;;;5.00;1.00;;;;;;5105925;28;20645;-57
2021/01/12 00:19:54;;;;;;;3.80;3.33;;;4.80;1.00;;;;;;5107820;28;20532;-58
2021/01/12 00:22:20;;;;;;;5.70;3.93;;;5.00;1.00;;;;;;5110100;28;20606;-58
2021/01/12 00:24:47;;;;;;;5.50;4.30;;;5.10;1.00;;;;;;5111425;28;20210;-56
2021/01/12 00:27:14;;;;;;;5.20;4.20;;;5.00;1.00;;;;;;5113071;28;20189;-56
2021/01/12 00:29:40;;;;;;;5.60;3.90;;;4.90;1.00;;;;;;5113601;28;20431;-56
2021/01/12 00:32:28;;;;;;;6.27;4.23;;;4.90;1.00;;;;;;5110198;28;20612;-57
2021/01/12 00:34:55;;;;;;;5.47;4.33;;;4.90;1.00;;;;;;5109950;28;20431;-56
2021/01/12 00:37:22;;;;;;;5.63;3.47;;;4.90;1.00;;;;;;5112649;27;20436;-58
2021/01/12 00:39:48;;;;;;;6.50;3.90;;;4.80;1.00;;;;;;5113017;27;20940;-56
2021/01/12 00:42:14;;;;;;;7.37;4.67;;;5.00;1.00;;;;;;5113711;28;20495;-57
2021/01/12 00:44:40;;;;;;;6.03;4.10;;;4.90;1.00;;;;;;5123977;27;20212;-57
2021/01/12 00:47:07;;;;;;;5.13;3.90;;;4.90;1.00;;;;;;5121700;27;20446;-57
2021/01/12 00:49:33;;;;;;;6.40;4.40;;;5.00;1.00;;;;;;5113394;28;20181;-56
2021/01/12 00:51:58;;;;;;;5.47;4.00;;;5.10;1.00;;;;;;5111874;28;20447;-57
2021/01/12 00:54:25;;;;;;;7.00;4.60;;;5.10;1.00;;;;;;5109737;28;20457;-58
2021/01/12 00:56:52;;;;;;;6.23;4.70;;;5.10;1.00;;;;;;5107382;28;20229;-57
2021/01/12 00:59:18;;;;;;;7.43;4.20;;;5.10;1.00;;;;;;5111168;28;20987;-57
2021/01/12 01:01:44;;;;;;;6.00;3.97;;;5.10;1.00;;;;;;5112478;28;20524;-56
2021/01/12 01:04:15;;;;;;;8.47;4.20;;;5.10;1.00;;;;;;5112739;28;20247;-57
2021/01/12 01:06:42;;;;;;;6.87;3.60;;;5.20;1.00;;;;;;5107753;28;20482;-57
2021/01/12 01:09:09;;;;;;;5.90;4.13;;;5.10;1.00;;;;;;5111549;28;20948;-57
2021/01/12 01:11:42;;;;;;;4.60;3.37;;;5.10;1.00;;;;;;5112879;27;20496;-57
2021/01/12 01:14:08;;;;;;;6.10;5.43;;;5.20;1.00;;;;;;5108337;28;20440;-57
2021/01/12 01:16:35;;;;;;;5.63;3.87;;;5.10;1.00;;;;;;5113048;28;20444;-57
2021/01/12 01:19:01;;;;;;;6.87;4.57;;;5.10;1.00;;;;;;5110742;28;20506;-57
2021/01/12 01:21:27;;;;;;;3.90;3.20;;;5.20;1.00;;;;;;5088003;28;20454;-57
2021/01/12 01:23:53;;;;;;;5.27;3.93;;;5.20;1.00;;;;;;5104546;27;20446;-56
2021/01/12 01:26:19;;;;;;;4.77;3.30;;;5.10;1.00;;;;;;5111802;28;20451;-57
2021/01/12 01:28:45;;;;;;;3.90;3.50;;;5.20;1.00;;;;;;5104565;27;20540;-57
2021/01/12 01:31:11;;;;;;;6.13;4.60;;;5.20;1.00;;;;;;5108493;28;20927;-56
2021/01/12 01:33:36;;;;;;;4.30;3.77;;;5.20;1.00;;;;;;5110609;27;20262;-57
2021/01/12 01:36:03;;;;;;;4.87;3.37;;;5.30;1.00;;;;;;5112385;28;20183;-57
2021/01/12 01:38:30;;;;;;;6.60;3.63;;;5.40;1.00;;;;;;5112573;27;20178;-57
2021/01/12 01:40:58;;;;;;;4.57;3.80;;;5.30;1.00;;;;;;5109597;28;20778;-57
2021/01/12 01:43:24;;;;;;;5.57;3.90;;;5.30;1.00;;;;;;5112254;28;20442;-57
2021/01/12 01:45:51;;;;;;;4.60;3.53;;;5.40;1.00;;;;;;5109759;28;20564;-58
2021/01/12 01:48:18;;;;;;;4.00;3.10;;;5.50;1.00;;;;;;5110922;28;20268;-56
2021/01/12 01:50:45;;;;;;;5.13;4.33;;;5.50;1.00;;;;;;5112259;27;20524;-58
2021/01/12 01:53:10;;;;;;;5.30;3.43;;;5.50;1.00;;;;;;5111699;28;20443;-56
2021/01/12 01:55:38;;;;;;;5.10;3.57;;;5.50;1.00;;;;;;5110837;27;20944;-57
2021/01/12 01:58:05;;;;;;;4.70;3.43;;;5.50;1.00;;;;;;5110427;28;20451;-57
2021/01/12 02:00:33;;;;;;;4.70;3.40;;;5.50;1.00;;;;;;5106700;28;20939;-57
2021/01/12 02:03:15;;;;;;;4.70;3.63;;;5.50;1.00;;;;;;5108990;28;20447;-57
2021/01/12 02:05:47;;;;;;;6.07;3.67;;;5.40;1.00;;;;;;5111574;28;20474;-57
2021/01/12 02:08:23;;;;;;;4.23;3.37;;;5.50;1.00;;;;;;5110020;28;20473;-57
2021/01/12 02:10:54;;;;;;;5.67;3.33;;;5.90;1.00;;;;;;5111035;28;20484;-57
2021/01/12 02:13:23;;;;;;;5.40;4.23;;;5.70;1.00;;;;;;5111370;28;20439;-57
2021/01/12 02:15:49;;;;;;;3.90;3.20;;;5.70;1.00;;;;;;5110373;28;20530;-57
2021/01/12 02:18:15;;;;;;;3.43;2.70;;;5.70;1.00;;;;;;5105953;28;21015;-56
2021/01/12 02:20:42;;;;;;;3.70;2.90;;;5.60;1.00;;;;;;5111540;28;20532;-56
2021/01/12 02:23:32;;;;;;;5.03;3.33;;;5.60;1.00;;;;;;5109992;28;20862;-56
2021/01/12 02:25:58;;;;;;;5.37;3.47;;;5.60;1.00;;;;;;5109284;28;20457;-56
2021/01/12 02:28:24;;;;;;;5.50;3.50;;;5.60;1.00;;;;;;5121614;27;20464;-57
2021/01/12 02:30:49;;;;;;;4.23;3.43;;;5.60;1.00;;;;;;5109428;28;20471;-57
2021/01/12 02:33:15;;;;;;;4.73;3.80;;;5.60;1.00;;;;;;5110888;28;20638;-57
2021/01/12 02:35:46;;;;;;;5.17;3.80;;;5.60;1.00;;;;;;5111158;28;20183;-57
2021/01/12 02:38:12;;;;;;;4.80;3.73;;;5.70;1.00;;;;;;5107604;28;20182;-57
2021/01/12 02:40:38;;;;;;;6.63;3.70;;;5.60;1.00;;;;;;5111345;28;20432;-57
2021/01/12 02:43:04;;;;;;;5.03;3.30;;;5.70;1.00;;;;;;5111022;28;20792;-57
2021/01/12 02:45:31;;;;;;;4.07;3.60;;;5.70;1.00;;;;;;5110913;28;20575;-57
2021/01/12 02:47:57;;;;;;;4.73;3.77;;;5.70;1.00;;;;;;5107182;28;20472;-57
2021/01/12 02:50:24;;;;;;;5.03;3.17;;;5.80;1.00;;;;;;5110709;28;20434;-58
2021/01/12 02:52:49;;;;;;;5.03;3.57;;;5.60;1.00;;;;;;5107820;28;20451;-57
2021/01/12 02:55:15;;;;;;;5.37;3.63;;;5.60;1.00;;;;;;5109133;28;20439;-57
2021/01/12 02:57:41;;;;;;;5.13;3.43;;;5.70;1.00;;;;;;5105498;28;20535;-56
2021/01/12 03:00:12;;;;;;;5.00;3.60;;;5.70;1.00;;;;;;5106814;28;20258;-56
2021/01/12 03:02:38;;;;;;;3.37;3.00;;;5.90;1.00;;;;;;5103532;28;20774;-56
2021/01/12 03:05:05;;;;;;;4.97;3.20;;;5.90;1.00;;;;;;5110605;28;20476;-57
2021/01/12 03:07:31;;;;;;;4.47;3.30;;;5.80;1.00;;;;;;5109614;28;20201;-57
2021/01/12 03:09:57;;;;;;;3.87;3.30;;;5.70;1.00;;;;;;5110755;28;20443;-57
2021/01/12 03:12:23;;;;;;;2.90;2.60;;;5.70;1.00;;;;;;5110777;28;20231;-57
2021/01/12 03:14:49;;;;;;;5.40;3.77;;;5.70;1.00;;;;;;5109389;28;20625;-56
2021/01/12 03:17:14;;;;;;;4.37;3.40;;;5.70;1.00;;;;;;5110959;28;20452;-57
2021/01/12 03:19:43;;;;;;;4.07;2.90;;;5.80;1.00;;;;;;5110412;28;20269;-59
2021/01/12 03:22:09;;;;;;;4.33;3.20;;;5.80;1.00;;;;;;5105728;28;20944;-57
2021/01/12 03:24:38;;;;;;;4.73;2.77;;;5.60;1.00;;;;;;5107772;28;20817;-56
2021/01/12 03:27:04;;;;;;;4.10;3.30;;;5.80;1.00;;;;;;5110495;28;20495;-57
2021/01/12 03:29:30;;;;;;;5.03;3.60;;;6.00;1.00;;;;;;5106522;28;20447;-56
2021/01/12 03:31:56;;;;;;;3.80;3.13;;;6.00;1.00;;;;;;5109570;28;20981;-56
2021/01/12 03:34:22;;;;;;;8.93;5.27;;;;;;;;;;5105344;28;20225;-58
2021/01/12 03:36:48;;;;;;;10.43;7.27;;;5.90;1.00;;;;;;5108836;28;20578;-56
2021/01/12 03:39:13;;;;;;;11.40;8.60;;;5.70;1.00;;;;;;5109056;28;20527;-58
2021/01/12 03:41:39;;;;;;;13.47;7.97;;;5.40;1.00;;;;;;5110488;28;20204;-57
2021/01/12 03:44:05;;;;;;;13.07;9.57;;;5.20;1.00;;;;;;5110310;28;20184;-57
2021/01/12 03:46:31;;;;;;;15.37;10.00;;;5.10;1.00;;;;;;5110677;28;20268;-57
2021/01/12 03:48:56;;;;;;;14.60;8.60;;;5.00;1.00;;;;;;5107271;28;20186;-57
2021/01/12 03:51:25;;;;;;;12.80;9.23;;;4.90;1.00;;;;;;5106583;28;20631;-57
2021/01/12 03:53:51;;;;;;;12.07;8.60;;;4.90;1.00;;;;;;5110045;28;20178;-57
2021/01/12 03:56:17;;;;;;;12.27;9.23;;;;;;;;;;5109744;28;20803;-57
2021/01/12 03:58:43;;;;;;;21.30;11.37;;;4.90;1.00;;;;;;5112946;27;20877;-58
2021/01/12 04:01:09;;;;;;;15.00;9.57;;;4.90;1.00;;;;;;5113962;28;20588;-57
2021/01/12 04:03:35;;;;;;;13.53;9.43;;;4.80;1.00;;;;;;5108166;28;20203;-57
2021/01/12 04:06:02;;;;;;;14.17;9.83;;;4.80;1.00;;;;;;5113962;28;20463;-59
2021/01/12 04:08:28;;;;;;;17.80;11.33;;;4.70;1.00;;;;;;5112608;28;20220;-57
2021/01/12 04:10:54;;;;;;;21.60;11.37;;;4.70;1.00;;;;;;5112817;28;20481;-57
2021/01/12 04:13:20;;;;;;;17.40;11.60;;;;;;;;;;5113893;28;20189;-57
2021/01/12 04:15:45;;;;;;;18.67;11.70;;;4.50;1.00;;;;;;5113552;28;20453;-57
2021/01/12 04:18:11;;;;;;;19.10;12.23;;;4.30;1.00;;;;;;5113771;28;20446;-57
2021/01/12 04:20:37;;;;;;;18.83;11.50;;;4.10;1.00;;;;;;5114148;28;20640;-58
2021/01/12 04:23:02;;;;;;;19.63;12.43;;;4.00;1.00;;;;;;5114443;27;20238;-57
2021/01/12 04:25:28;;;;;;;22.40;13.13;;;4.00;1.00;;;;;;5112574;27;20206;-57
2021/01/12 04:27:54;;;;;;;19.40;12.87;;;4.00;1.00;;;;;;5109541;28;20173;-56
2021/01/12 04:30:20;;;;;;;20.17;13.03;;;4.40;1.00;;;;;;5112229;28;20627;-57
2021/01/12 04:32:46;;;;;;;18.90;12.00;;;4.00;1.00;;;;;;5106595;28;20201;-57
2021/01/12 04:35:11;;;;;;;20.30;13.50;;;4.00;1.00;;;;;;5113297;28;20437;-58
2021/01/12 04:37:37;;;;;;;20.67;12.67;;;3.90;1.00;;;;;;5113644;28;20649;-57
2021/01/12 04:40:04;;;;;;;20.23;13.00;;;3.80;1.00;;;;;;5112403;28;20700;-58
2021/01/12 04:42:32;;;;;;;23.60;14.20;;;3.70;1.00;;;;;;5110404;28;20180;-58
2021/01/12 04:45:03;;;;;;;18.07;12.13;;;3.70;1.00;;;;;;5106174;28;20468;-57
2021/01/12 04:47:29;;;;;;;24.23;14.60;;;3.60;1.00;;;;;;5112413;28;20499;-57
2021/01/12 04:49:54;;;;;;;25.70;15.53;;;3.50;1.00;;;;;;5112923;28;20523;-57
2021/01/12 04:52:20;;;;;;;20.10;13.20;;;3.60;1.00;;;;;;5112162;28;20214;-57
2021/01/12 04:54:52;;;;;;;20.30;12.97;;;3.50;1.00;;;;;;5109067;28;20190;-58
2021/01/12 04:57:17;;;;;;;20.20;13.40;;;3.30;1.00;;;;;;5105542;28;20469;-58
2021/01/12 04:59:44;;;;;;;26.13;14.97;;;3.40;1.00;;;;;;5108476;28;20446;-57
2021/01/12 05:02:13;;;;;;;27.47;14.63;;;3.30;1.00;;;;;;5111037;28;20193;-57
2021/01/12 05:04:40;;;;;;;21.40;12.80;;;3.40;1.00;;;;;;5112379;28;20480;-57
2021/01/12 05:07:08;;;;;;;23.83;15.53;;;3.40;1.00;;;;;;5112533;28;20447;-58
2021/01/12 05:09:34;;;;;;;23.37;14.40;;;3.30;1.00;;;;;;5107636;28;20516;-57
2021/01/12 05:12:00;;;;;;;26.07;15.53;;;3.20;1.00;;;;;;5110484;28;20940;-57
2021/01/12 05:14:28;;;;;;;24.33;14.27;;;3.20;1.00;;;;;;5112988;28;20448;-56
2021/01/12 05:16:55;;;;;;;21.90;13.70;;;3.20;1.00;;;;;;5109700;28;20469;-57
2021/01/12 05:19:28;;;;;;;27.37;15.20;;;3.20;1.00;;;;;;5112393;28;20894;-56
2021/01/12 05:22:08;;;;;;;22.80;14.93;;;3.20;1.00;;;;;;5113140;28;20436;-57
2021/01/12 05:24:41;;;;;;;25.47;14.50;;;3.20;1.00;;;;;;5110524;28;20455;-58
2021/01/12 05:27:08;;;;;;;25.50;14.83;;;3.20;1.00;;;;;;5113062;28;20425;-58
2021/01/12 05:29:36;;;;;;;26.20;15.33;;;3.00;1.00;;;;;;5107843;28;20496;-57
2021/01/12 05:32:07;;;;;;;24.60;14.17;;;3.10;1.00;;;;;;5106172;28;20502;-56
2021/01/12 05:34:38;;;;;;;23.90;14.80;;;3.10;1.00;;;;;;5109011;28;20446;-56
2021/01/12 05:37:08;;;;;;;25.57;16.77;;;3.10;1.00;;;;;;5112308;28;20446;-56
2021/01/12 05:39:39;;;;;;;25.77;14.83;;;3.00;4.40;;;;;;5110780;28;20447;-56
2021/01/12 05:42:07;;;;;;;27.73;16.53;;;3.00;8.40;;;;;;5109942;28;20529;-57
2021/01/12 05:44:40;;;;;;;28.73;15.00;;;3.00;33.00;;;;;;5112091;28;20520;-57
2021/01/12 05:47:06;;;;;;;29.33;15.67;;;3.00;55.50;;;;;;5111943;28;20436;-56
2021/01/12 05:49:33;;;;;;;27.50;15.10;;;3.00;51.20;;;;;;5111939;28;20489;-56
2021/01/12 05:51:58;;;;;;;28.00;15.27;;;3.10;59.20;;;;;;5111473;27;20935;-57
2021/01/12 05:54:27;;;;;;;30.47;17.23;;;3.00;60.50;;;;;;5110937;28;20455;-57
2021/01/12 05:57:15;;;;;;;29.67;16.93;;;3.00;73.00;;;;;;5109804;28;20184;-57
2021/01/12 05:59:48;;;;;;;26.27;15.43;;;2.90;99.90;;;;;;5111455;28;20441;-57
2021/01/12 06:02:20;;;;;;;31.23;17.47;;;2.90;99.90;;;;;;5111813;28;20994;-58
2021/01/12 06:04:50;;;;;;;28.37;17.10;;;3.00;99.90;;;;;;5110558;28;20469;-57
2021/01/12 06:07:17;;;;;;;30.13;16.00;;;3.00;99.90;;;;;;5111203;28;20435;-56
2021/01/12 06:09:45;;;;;;;27.30;15.53;;;3.00;99.90;;;;;;5111428;28;20949;-57
2021/01/12 06:12:14;;;;;;;23.97;15.70;;;3.00;99.90;;;;;;5111963;28;20785;-57
2021/01/12 06:14:49;;;;;;;23.60;14.27;;;3.30;99.90;;;;;;5117781;27;20446;-56
2021/01/12 06:17:16;;;;;;;30.53;15.40;;;3.10;99.90;;;;;;5130799;27;20567;-58
2021/01/12 06:19:45;;;;;;;29.37;16.40;;;3.00;99.90;;;;;;5114103;27;20434;-57
2021/01/12 06:22:19;;;;;;;25.47;15.30;;;2.90;99.90;;;;;;5108792;28;20449;-57
2021/01/12 06:25:07;;;;;;;27.30;15.07;;;3.00;99.90;;;;;;5111602;28;20459;-57
2021/01/12 06:27:34;;;;;;;25.17;15.70;;;3.00;99.90;;;;;;5109965;28;20433;-57
2021/01/12 06:30:04;;;;;;;25.20;15.07;;;3.00;99.90;;;;;;5121328;27;20431;-56
2021/01/12 06:32:31;;;;;;;26.80;15.17;;;3.10;99.90;;;;;;5131768;27;20561;-56
2021/01/12 06:35:06;;;;;;;24.33;14.90;;;3.20;99.90;;;;;;5114481;27;21016;-56
2021/01/12 06:37:37;;;;;;;24.70;14.47;;;3.30;99.90;;;;;;5110545;28;20448;-57
2021/01/12 06:40:07;;;;;;;26.60;14.67;;;3.10;99.90;;;;;;5114305;27;20963;-56
2021/01/12 06:42:33;;;;;;;23.73;13.60;;;3.10;99.90;;;;;;5116484;27;20929;-56
2021/01/12 06:44:59;;;;;;;27.03;15.47;;;3.20;99.90;;;;;;5119401;27;20459;-57
2021/01/12 06:47:28;;;;;;;23.70;13.60;;;3.30;99.90;;;;;;5109456;28;20440;-57
2021/01/12 06:50:09;;;;;;;23.43;14.03;;;3.40;99.90;;;;;;5111074;28;20982;-56
2021/01/12 06:52:48;;;;;;;23.63;13.00;;;3.40;99.90;;;;;;5111023;27;20478;-57
2021/01/12 06:55:20;;;;;;;24.13;15.00;;;3.40;99.90;;;;;;5110340;28;20440;-57
2021/01/12 06:57:51;;;;;;;22.03;13.80;;;3.50;99.90;;;;;;5110298;27;20443;-56
2021/01/12 07:00:19;;;;;;;22.90;14.27;;;3.40;99.90;;;;;;5112566;27;20446;-56
2021/01/12 07:02:54;;;;;;;24.47;12.77;;;3.40;99.90;;;;;;5131418;27;20533;-58
2021/01/12 07:05:20;;;;;;;22.20;13.10;;;3.40;99.90;;;;;;5113249;27;21032;-56
2021/01/12 07:07:50;;;;;;;21.83;13.07;;;3.20;99.90;;;;;;5118825;27;20550;-58
2021/01/12 07:10:20;;;;;;;20.07;13.30;;;3.20;99.90;;;;;;5110662;28;20438;-58
2021/01/12 07:12:47;;;;;;;35.43;17.23;;;3.30;99.90;;;;;;5114956;27;20448;-57
2021/01/12 07:15:23;;;;;;;21.17;13.67;;;3.40;99.90;;;;;;5109046;28;20961;-58
2021/01/12 07:17:50;;;;;;;20.40;12.27;;;3.40;99.90;;;;;;5115371;27;20563;-57
2021/01/12 07:20:18;;;;;;;20.20;11.97;;;3.40;99.90;;;;;;5110440;28;20495;-57
2021/01/12 07:23:06;;;;;;;24.20;13.80;;;3.30;99.90;;;;;;5110708;28;20440;-57
2021/01/12 07:25:43;;;;;;;19.87;11.40;;;3.30;99.90;;;;;;5110384;28;20471;-56
2021/01/12 07:28:09;;;;;;;21.13;14.23;;;3.30;99.90;;;;;;5110680;28;20481;-57
2021/01/12 07:30:41;;;;;;;21.67;13.33;;;3.30;99.90;;;;;;5109737;28;20462;-58
2021/01/12 07:33:17;;;;;;;22.50;12.53;;;3.20;99.90;;;;;;5116390;27;20442;-58
2021/01/12 07:35:44;;;;;;;20.10;12.60;;;3.30;99.90;;;;;;5125663;27;20445;-57
2021/01/12 07:38:14;;;;;;;19.30;12.53;;;3.30;99.90;;;;;;5120983;27;20439;-57
2021/01/12 07:40:39;;;;;;;19.80;12.87;;;5.30;99.90;;;;;;5122175;27;20544;-56
2021/01/12 07:43:05;;;;;;;20.97;12.43;;;3.30;99.90;;;;;;5114621;28;20535;-56
2021/01/12 07:45:32;;;;;;;19.27;11.83;;;3.30;99.90;;;;;;5114397;28;20202;-58
2021/01/12 07:48:00;;;;;;;18.23;12.40;;;3.40;99.90;;;;;;5113498;28;20223;-56
2021/01/12 07:50:27;;;;;;;18.93;12.13;;;3.40;99.90;;;;;;5113948;28;20439;-57
2021/01/12 07:52:54;;;;;;;21.93;13.73;;;3.40;99.90;;;;;;5113019;28;20442;-57
2021/01/12 07:55:20;;;;;;;21.67;12.30;;;3.30;99.90;;;;;;5114595;28;20865;-56
2021/01/12 07:57:49;;;;;;;20.93;13.33;;;3.40;99.90;;;;;;5114170;28;20475;-56
2021/01/12 08:00:17;;;;;;;18.40;13.13;;;3.40;99.90;;;;;;5112757;28;20387;-56
2021/01/12 08:02:51;;;;;;;22.67;12.70;;;3.40;99.90;;;;;;5114181;28;20491;-57
2021/01/12 08:05:19;;;;;;;28.53;12.93;;;3.50;99.90;;;;;;5112177;27;21036;-56
2021/01/12 08:07:45;;;;;;;21.47;12.60;;;3.40;99.90;;;;;;5111631;28;20457;-57
2021/01/12 08:10:11;;;;;;;21.57;12.27;;;3.60;99.90;;;;;;5113525;28;20834;-57
2021/01/12 08:12:37;;;;;;;19.23;10.70;;;3.60;99.90;;;;;;5113825;28;20232;-57
2021/01/12 08:15:11;;;;;;;19.63;12.40;;;3.60;99.90;;;;;;5113924;28;21484;-56
2021/01/12 08:17:44;;;;;;;21.60;12.73;;;3.60;99.90;;;;;;5114080;28;20430;-59
2021/01/12 08:20:11;;;;;;;17.47;11.07;;;3.60;99.90;;;;;;5114476;27;20470;-58
2021/01/12 08:22:37;;;;;;;22.00;11.83;;;3.60;99.90;;;;;;5121637;27;21030;-57
2021/01/12 08:25:07;;;;;;;17.23;9.90;;;3.70;99.90;;;;;;5113796;27;20555;-56
2021/01/12 08:27:33;;;;;;;17.87;11.63;;;3.60;99.90;;;;;;5110273;27;20466;-57
2021/01/12 08:30:06;;;;;;;21.43;11.07;;;3.50;99.90;;;;;;5114720;27;20442;-58
2021/01/12 08:32:35;;;;;;;23.17;12.00;;;3.50;99.90;;;;;;5118993;27;20444;-57
2021/01/12 08:35:08;;;;;;;21.20;12.10;;;3.60;99.90;;;;;;5119271;27;20458;-57
2021/01/12 08:37:43;;;;;;;20.97;12.80;;;3.50;99.90;;;;;;5113578;28;20833;-56
2021/01/12 08:40:12;;;;;;;19.87;11.83;;;3.50;99.90;;;;;;5111388;28;20448;-56
2021/01/12 08:42:38;;;;;;;21.10;11.67;;;3.50;99.90;;;;;;5118722;27;20445;-58
2021/01/12 08:45:15;;;;;;;13.93;9.77;;;3.50;99.90;;;;;;5119682;27;20984;-57
2021/01/12 08:47:42;;;;;;;14.20;9.93;;;3.50;99.90;;;;;;5112872;28;20485;-57
2021/01/12 08:50:09;;;;;;;12.80;9.50;;;3.60;99.90;;;;;;5122261;27;20435;-56
2021/01/12 08:52:37;;;;;;;16.93;9.47;;;3.60;99.90;;;;;;5120016;27;20777;-58
2021/01/12 08:55:17;;;;;;;16.80;10.30;;;3.60;99.90;;;;;;5114305;27;20498;-56
2021/01/12 08:57:57;;;;;;;12.93;7.67;;;3.70;99.90;;;;;;5123698;27;20459;-57
2021/01/12 09:00:30;;;;;;;18.80;9.53;;;3.70;99.90;;;;;;5123034;27;20451;-57
2021/01/12 09:02:57;;;;;;;26.47;11.83;;;3.80;99.90;;;;;;5111648;27;20891;-57
2021/01/12 09:05:23;;;;;;;17.80;10.57;;;5.80;99.90;;;;;;5118416;27;20462;-56
2021/01/12 09:08:06;;;;;;;16.40;9.67;;;3.70;99.90;;;;;;5119410;27;20741;-57
2021/01/12 09:10:33;;;;;;;16.17;9.00;;;3.70;99.90;;;;;;5122467;27;20438;-57
2021/01/12 09:12:59;;;;;;;13.70;9.70;;;3.80;99.90;;;;;;5120065;27;20510;-56
2021/01/12 09:15:30;;;;;;;18.60;9.07;;;3.80;99.90;;;;;;5126676;27;20492;-56
2021/01/12 09:18:23;;;;;;;20.60;9.73;;;3.90;99.90;;;;;;5131798;27;20486;-57
2021/01/12 09:21:07;;;;;;;17.30;9.53;;;3.80;99.90;;;;;;5128003;27;20455;-58
2021/01/12 09:23:33;;;;;;;20.00;9.60;;;3.80;99.90;;;;;;5117148;27;20454;-57
2021/01/12 09:26:03;;;;;;;16.10;8.40;;;3.80;99.90;;;;;;5120532;27;20459;-57
2021/01/12 09:28:31;;;;;;;13.33;7.07;;;3.80;99.90;;;;;;5110339;28;20174;-57
2021/01/12 09:31:10;;;;;;;12.30;7.43;;;3.80;99.90;;;;;;5127278;27;20464;-59
2021/01/12 09:33:38;;;;;;;10.70;7.60;;;3.90;99.90;;;;;;5131731;27;20442;-58
2021/01/12 09:36:14;;;;;;;12.60;7.67;;;3.80;99.90;;;;;;5119234;27;20813;-58
2021/01/12 09:38:52;;;;;;;14.17;7.50;;;3.90;99.90;;;;;;5126009;27;20480;-57
2021/01/12 09:41:22;;;;;;;11.43;8.17;;;3.90;99.90;;;;;;5120468;27;20485;-56
2021/01/12 09:43:49;;;;;;;9.77;7.00;;;;;;;;;;5128613;27;20443;-56
2021/01/12 09:46:15;;;;;;;19.90;8.73;;;4.00;99.90;;;;;;5123115;27;20556;-57
2021/01/12 09:48:41;;;;;;;31.83;12.80;;;4.20;99.90;;;;;;5122482;27;20789;-57
2021/01/12 09:51:09;;;;;;;17.23;8.90;;;4.10;99.90;;;;;;5122124;27;20440;-57
2021/01/12 09:53:34;;;;;;;7.33;5.50;;;4.30;99.90;;;;;;5124305;27;20177;-57
2021/01/12 09:56:01;;;;;;;15.13;6.47;;;4.40;99.90;;;;;;5118809;27;20616;-58
2021/01/12 09:58:27;;;;;;;8.87;4.90;;;4.40;99.90;;;;;;5118136;27;20714;-57
2021/01/12 10:00:54;;;;;;;8.53;5.03;;;4.50;99.90;;;;;;5125062;27;20454;-58
2021/01/12 10:03:19;;;;;;;19.17;6.67;;;4.50;99.90;;;;;;5122785;27;20903;-57
2021/01/12 10:05:45;;;;;;;16.13;7.90;;;4.50;99.90;;;;;;5118116;27;20649;-57
2021/01/12 10:08:11;;;;;;;3.80;3.30;;;4.40;99.90;;;;;;5127436;27;20674;-59
2021/01/12 10:10:36;;;;;;;4.20;3.80;;;4.50;99.90;;;;;;5119294;27;20185;-57
2021/01/12 10:13:03;;;;;;;11.53;5.90;;;4.70;99.90;;;;;;5124985;27;20230;-58
2021/01/12 10:15:29;;;;;;;6.37;4.47;;;4.70;99.90;;;;;;5123254;27;20431;-60
2021/01/12 10:17:54;;;;;;;13.40;4.80;;;4.80;99.90;;;;;;5114169;27;20526;-58
2021/01/12 10:20:21;;;;;;;26.00;9.43;;;4.80;99.90;;;;;;5114554;27;20230;-57
2021/01/12 10:22:47;;;;;;;22.10;8.73;;;4.80;99.90;;;;;;5123450;27;20692;-57
2021/01/12 10:25:13;;;;;;;17.13;6.90;;;4.70;99.90;;;;;;5119108;27;20468;-57
2021/01/12 10:27:42;;;;;;;7.30;3.60;;;4.70;99.90;;;;;;5118652;27;20203;-58
2021/01/12 10:30:10;;;;;;;19.10;7.13;;;4.80;99.90;;;;;;5113041;27;21011;-58
2021/01/12 10:32:36;;;;;;;13.30;5.80;;;4.70;99.90;;;;;;5111514;28;21425;-58
2021/01/12 10:35:03;;;;;;;8.13;4.43;;;4.70;99.90;;;;;;5117017;27;20442;-58
2021/01/12 10:37:29;;;;;;;8.50;4.93;;;4.80;99.90;;;;;;5113970;27;20804;-58
2021/01/12 10:39:55;;;;;;;14.60;5.37;;;4.90;99.90;;;;;;5110197;28;20555;-58
2021/01/12 10:42:21;;;;;;;9.27;5.30;;;4.90;99.90;;;;;;5111174;28;20182;-57
2021/01/12 10:44:46;;;;;;;13.67;6.37;;;4.90;99.90;;;;;;5110999;28;20550;-58
2021/01/12 10:47:12;;;;;;;7.80;3.23;;;4.90;99.90;;;;;;5111335;27;20515;-58
2021/01/12 10:49:39;;;;;;;8.80;4.90;;;4.90;99.90;;;;;;5110926;28;20181;-57
2021/01/12 10:52:06;;;;;;;9.50;6.40;;;4.90;99.90;;;;;;5111012;28;20633;-58
2021/01/12 10:54:33;;;;;;;2.27;1.83;;;5.00;99.90;;;;;;5110911;28;21005;-58
2021/01/12 10:56:59;;;;;;;2.90;2.40;;;5.10;99.90;;;;;;5110843;28;20454;-58
2021/01/12 10:59:27;;;;;;;2.80;2.23;;;5.20;99.90;;;;;;5110812;28;20428;-57
2021/01/12 11:01:58;;;;;;;5.90;5.37;;;5.30;99.90;;;;;;5109107;28;20466;-58
2021/01/12 11:04:24;;;;;;;2.37;2.17;;;5.30;99.90;;;;;;5123739;27;20441;-58
2021/01/12 11:06:55;;;;;;;1.20;1.10;;;5.50;99.90;;;;;;5110643;28;20431;-57
2021/01/12 11:09:28;;;;;;;1.30;1.10;;;5.50;99.90;;;;;;5110269;28;20444;-58
2021/01/12 11:12:04;;;;;;;2.23;1.23;;;5.50;99.90;;;;;;5109403;28;20451;-57
2021/01/12 11:14:30;;;;;;;1.03;0.70;;;5.60;99.90;;;;;;5110908;28;20423;-58
2021/01/12 11:16:56;;;;;;;1.33;1.20;;;5.60;99.90;;;;;;5121354;27;20447;-59
2021/01/12 11:19:22;;;;;;;2.20;0.90;;;5.60;99.90;;;;;;5110781;28;20424;-58
2021/01/12 11:21:49;;;;;;;1.03;0.90;;;5.80;99.90;;;;;;5112686;28;21078;-58
2021/01/12 11:24:19;;;;;;;0.90;0.83;;;5.80;99.90;;;;;;5119819;28;20442;-57
2021/01/12 11:26:46;;;;;;;1.03;0.93;;;5.90;99.90;;;;;;5121299;28;20467;-57
2021/01/12 11:29:12;;;;;;;0.97;0.80;;;5.90;99.00;;;;;;5122357;27;20439;-59
2021/01/12 11:31:39;;;;;;;1.07;0.97;;;6.00;94.10;;;;;;5122244;28;20538;-57
2021/01/12 11:34:06;;;;;;;1.20;0.80;;;5.90;96.00;;;;;;5120641;28;20277;-57
2021/01/12 11:36:50;;;;;;;0.70;0.60;;;5.90;88.80;;;;;;5119452;28;20800;-56
2021/01/12 11:39:17;;;;;;;1.70;0.77;;;6.00;61.50;;;;;;5115700;28;20435;-56
2021/01/12 11:41:50;;;;;;;1.17;0.57;;;5.80;75.60;;;;;;5117910;28;20800;-57
2021/01/12 11:44:17;;;;;;;1.30;0.90;;;5.90;72.10;;;;;;5124021;28;20447;-57
2021/01/12 11:46:43;;;;;;;1.43;0.63;;;6.00;76.10;;;;;;5126809;27;20435;-57
2021/01/12 11:49:09;;;;;;;0.90;0.60;;;5.90;64.00;;;;;;5128315;27;20426;-59
2021/01/12 11:51:35;;;;;;;1.30;0.80;;;6.00;44.10;;;;;;5124428;27;20809;-57
2021/01/12 11:54:00;;;;;;;1.33;0.90;;;6.00;45.20;;;;;;5123142;27;20448;-59
2021/01/12 11:56:26;;;;;;;0.80;0.57;;;6.00;47.90;;;;;;5109687;28;20239;-58
2021/01/12 11:58:52;;;;;;;2.27;1.60;;;5.90;41.60;;;;;;5114837;28;20374;-58
2021/01/12 12:01:17;;;;;;;1.13;1.07;;;5.90;37.80;;;;;;5113443;28;20654;-60
2021/01/12 12:03:43;;;;;;;3.10;2.40;;;6.00;26.70;;;;;;5119382;28;20183;-57
2021/01/12 12:06:12;;;;;;;2.73;1.90;;;6.00;31.40;;;;;;5122472;28;20265;-58
2021/01/12 12:08:37;;;;;;;1.40;1.30;;;6.10;28.30;;;;;;5126749;27;20179;-58
2021/01/12 12:11:03;;;;;;;0.73;0.73;;;6.20;13.60;;;;;;5108577;28;20738;-58
2021/01/12 12:13:29;;;;;;;1.30;1.10;;;6.10;13.00;;;;;;5110059;28;20182;-59
2021/01/12 12:15:55;;;;;;;1.67;1.20;;;6.00;15.10;;;;;;5111514;28;20440;-59
2021/01/12 12:18:20;;;;;;;1.10;0.80;;;6.10;12.90;;;;;;5121648;27;20445;-57
2021/01/12 12:20:47;;;;;;;1.80;0.70;;;6.20;5.60;;;;;;5123722;27;20178;-57
2021/01/12 12:23:12;;;;;;;0.80;0.80;;;6.30;1.00;;;;;;5117205;27;20238;-57
2021/01/12 12:25:38;;;;;;;0.50;0.40;;;6.20;1.00;;;;;;5123954;27;20471;-57
2021/01/12 12:28:04;;;;;;;0.63;0.60;;;6.20;1.00;;;;;;5115484;27;20235;-58
2021/01/12 12:30:30;;;;;;;0.70;0.70;;;6.10;1.00;;;;;;5110400;27;20971;-57
2021/01/12 12:32:56;;;;;;;1.10;0.70;;;6.10;1.00;;;;;;5109963;27;20442;-57
2021/01/12 12:35:21;;;;;;;0.77;0.77;;;5.90;1.00;;;;;;5114466;28;21070;-57
2021/01/12 12:37:47;;;;;;;0.63;0.50;;;6.00;1.00;;;;;;5122154;27;20615;-57
2021/01/12 12:40:13;;;;;;;1.43;0.53;;;6.10;1.00;;;;;;5131939;27;20623;-57
2021/01/12 12:42:39;;;;;;;0.60;0.60;;;6.10;1.00;;;;;;5116776;27;20174;-58
2021/01/12 12:45:06;;;;;;;0.70;0.70;;;6.00;1.00;;;;;;5114031;28;20463;-58
2021/01/12 12:47:31;;;;;;;3.20;0.77;;;6.00;1.00;;;;;;5113930;28;20524;-57
2021/01/12 12:49:57;;;;;;;1.27;0.80;;;6.00;1.00;;;;;;5113348;28;20442;-57
2021/01/12 12:52:23;;;;;;;0.53;0.43;;;6.10;1.00;;;;;;5107913;27;20790;-57
2021/01/12 12:54:49;;;;;;;1.47;1.10;;;6.10;1.00;;;;;;5112882;28;20653;-57
2021/01/12 12:57:14;;;;;;;1.00;0.70;;;6.00;1.00;;;;;;5127589;27;20446;-58
2021/01/12 12:59:40;;;;;;;0.50;0.50;;;6.00;1.00;;;;;;5126683;27;20203;-57